createdAt,value
2024-03-05T00:00:56.527Z,69.89
2024-03-05T00:03:23.681Z,69.86
2024-03-05T00:05:50.833Z,69.96
2024-03-05T00:08:18.212Z,70.21
2024-03-05T00:10:45.200Z,70.17
2024-03-05T00:13:14.103Z,70.60
2024-03-05T00:15:41.248Z,70.34
2024-03-05T00:18:08.231Z,70.17
2024-03-05T00:20:35.262Z,70.84
2024-03-05T00:23:02.193Z,70.71
2024-03-05T00:25:29.147Z,70.41
2024-03-05T00:27:56.096Z,70.79
2024-03-05T00:30:23.498Z,70.62
2024-03-05T00:32:50.658Z,70.70
2024-03-05T00:35:17.848Z,70.64
2024-03-05T00:37:45.017Z,70.45
2024-03-05T00:40:13.271Z,70.34
2024-03-05T00:42:40.729Z,70.27
2024-03-05T00:45:09.101Z,70.50
2024-03-05T00:47:37.636Z,70.41
2024-03-05T00:50:08.441Z,70.63
2024-03-05T00:52:35.582Z,70.68
2024-03-05T00:55:02.640Z,70.53
2024-03-05T00:57:30.175Z,70.60
2024-03-05T00:59:57.374Z,70.43
2024-03-05T01:02:24.708Z,70.57
2024-03-05T01:04:54.303Z,70.64
2024-03-05T01:07:21.690Z,70.70
2024-03-05T01:09:50.285Z,70.88
2024-03-05T01:12:17.733Z,70.51
2024-03-05T01:14:45.738Z,71.11
2024-03-05T01:17:13.828Z,71.22
2024-03-05T01:19:41.051Z,70.96
2024-03-05T01:22:08.013Z,70.84
2024-03-05T01:24:34.936Z,71.05
2024-03-05T01:27:01.868Z,71.10
2024-03-05T01:29:28.844Z,71.13
2024-03-05T01:32:00.586Z,71.45
2024-03-05T01:34:27.721Z,71.28
2024-03-05T01:36:58.419Z,71.23
2024-03-05T01:39:29.734Z,71.40
2024-03-05T01:41:58.035Z,70.86
2024-03-05T01:44:25.764Z,70.91
2024-03-05T01:46:57.249Z,71.12
2024-03-05T01:49:25.569Z,71.07
2024-03-05T01:51:55.573Z,70.63
2024-03-05T01:54:23.630Z,71.09
2024-03-05T01:56:55.388Z,71.21
2024-03-05T01:59:23.178Z,70.92
2024-03-05T02:01:51.793Z,71.49
2024-03-05T02:04:19.057Z,71.70
2024-03-05T02:06:47.637Z,71.54
2024-03-05T03:48:12.136Z,71.85
2024-03-05T03:50:39.055Z,71.50
2024-03-05T03:53:07.090Z,71.51
2024-03-05T03:55:34.755Z,71.69
2024-03-05T03:58:02.174Z,71.56
2024-03-05T04:00:30.463Z,71.22
2024-03-05T04:02:57.456Z,71.29
2024-03-05T04:05:24.897Z,71.21
2024-03-05T04:07:52.238Z,70.90
2024-03-05T04:10:19.262Z,71.18
2024-03-05T04:12:46.366Z,71.08
2024-03-05T04:15:13.700Z,71.19
2024-03-05T04:17:41.173Z,71.05
2024-03-05T04:20:10.581Z,71.28
2024-03-05T04:22:41.340Z,71.27
2024-03-05T04:25:08.984Z,71.44
2024-03-05T04:27:42.585Z,71.46
2024-03-05T04:30:13.375Z,71.40
2024-03-05T04:32:56.246Z,71.09
2024-03-05T04:35:26.582Z,71.39
2024-03-05T04:37:53.495Z,71.29
2024-03-05T04:40:20.546Z,71.45
2024-03-05T04:42:49.006Z,70.91
2024-03-05T04:45:16.892Z,71.16
2024-03-05T04:47:44.087Z,70.66
2024-03-05T04:50:11.067Z,71.13
2024-03-05T04:52:38.044Z,70.90
2024-03-05T04:55:06.715Z,70.83
2024-03-05T04:57:34.056Z,71.13
2024-03-05T05:00:00.965Z,71.09
2024-03-05T05:02:27.829Z,71.19
2024-03-05T05:04:54.834Z,71.22
2024-03-05T05:07:25.186Z,71.68
2024-03-05T05:09:52.300Z,71.15
2024-03-05T05:12:19.217Z,71.50
2024-03-05T05:14:46.107Z,72.06
2024-03-05T05:17:14.833Z,72.46
2024-03-05T05:19:42.339Z,72.14
2024-03-05T05:22:09.299Z,71.89
2024-03-05T05:24:37.771Z,71.53
2024-03-05T05:27:05.446Z,71.59
2024-03-05T05:29:40.226Z,71.84
2024-03-05T05:32:09.454Z,71.71
2024-03-05T05:34:38.638Z,71.50
2024-03-05T05:37:06.178Z,71.67
2024-03-05T05:39:33.745Z,71.79
2024-03-05T05:42:00.783Z,71.48
2024-03-05T05:44:27.680Z,71.56
2024-03-05T05:46:55.427Z,71.80
2024-03-05T05:49:22.840Z,72.09
2024-03-05T05:51:50.373Z,72.27
2024-03-05T05:54:19.826Z,72.32
2024-03-05T05:56:50.098Z,72.42
2024-03-05T05:59:18.605Z,72.55
2024-03-05T06:01:46.313Z,72.92
2024-03-05T06:04:14.165Z,72.63
2024-03-05T06:06:41.148Z,72.88
2024-03-05T06:09:11.147Z,72.63
2024-03-05T06:11:39.266Z,72.43
2024-03-05T06:14:07.749Z,72.75
2024-03-05T06:16:35.125Z,72.85
2024-03-05T06:19:02.306Z,72.85
2024-03-05T06:21:29.393Z,72.93
2024-03-05T06:23:56.347Z,72.97
2024-03-05T06:26:23.463Z,72.85
2024-03-05T06:28:50.372Z,72.94
2024-03-05T06:31:17.476Z,72.76
2024-03-05T06:33:45.305Z,72.50
2024-03-05T06:36:13.250Z,72.56
2024-03-05T06:38:40.400Z,72.45
2024-03-05T06:41:07.613Z,72.60
2024-03-05T06:43:37.724Z,72.38
2024-03-05T06:46:05.583Z,72.13
2024-03-05T06:48:34.510Z,71.98
2024-03-05T06:51:04.846Z,72.02
2024-03-05T06:53:50.727Z,71.84
2024-03-05T06:56:36.147Z,71.27
2024-03-05T06:59:04.898Z,71.54
2024-03-05T07:01:33.349Z,70.43
2024-03-05T07:04:00.616Z,70.76
2024-03-05T07:06:27.511Z,70.30
2024-03-05T07:08:56.365Z,69.51
2024-03-05T07:11:25.881Z,67.80
2024-03-05T07:13:52.899Z,68.03
2024-03-05T07:16:21.159Z,69.24
2024-03-05T07:18:52.166Z,68.56
2024-03-05T07:21:21.973Z,67.40
2024-03-05T07:23:54.716Z,67.65
2024-03-05T07:26:22.809Z,65.11
2024-03-05T07:28:49.952Z,64.33
2024-03-05T07:31:18.694Z,63.85
2024-03-05T07:33:49.210Z,64.48
2024-03-05T07:36:19.227Z,65.60
2024-03-05T07:38:46.317Z,64.45
2024-03-05T07:41:21.584Z,65.53
2024-03-05T07:43:53.728Z,66.33
2024-03-05T07:46:20.867Z,65.74
2024-03-05T07:48:47.940Z,65.57
2024-03-05T07:51:21.625Z,63.33
2024-03-05T07:53:52.759Z,63.78
2024-03-05T07:56:19.746Z,64.44
2024-03-05T07:58:46.864Z,62.77
2024-03-05T08:01:13.799Z,64.27
2024-03-05T08:03:42.369Z,64.55
2024-03-05T08:06:09.481Z,63.60
2024-03-05T08:08:36.341Z,64.39
2024-03-05T08:11:03.454Z,65.35
2024-03-05T08:13:30.440Z,65.63
2024-03-05T08:15:57.419Z,65.98
2024-03-05T08:18:24.339Z,65.60
2024-03-05T08:20:52.025Z,65.59
2024-03-05T08:23:19.044Z,64.03
2024-03-05T08:25:49.540Z,63.58
2024-03-05T08:28:16.505Z,63.98
2024-03-05T08:30:43.874Z,63.79
2024-03-05T08:33:11.184Z,63.29
2024-03-05T08:35:38.310Z,64.35
2024-03-05T08:38:05.751Z,64.27
2024-03-05T08:40:34.594Z,65.21
2024-03-05T08:43:04.880Z,65.63
2024-03-05T08:45:32.654Z,67.91
2024-03-05T08:47:59.819Z,66.65
2024-03-05T08:50:30.116Z,66.98
2024-03-05T08:52:59.590Z,66.62
2024-03-05T08:55:27.475Z,65.68
2024-03-05T08:57:55.716Z,65.08
2024-03-05T09:00:33.357Z,65.61
2024-03-05T09:03:10.482Z,65.63
2024-03-05T09:05:37.874Z,66.00
2024-03-05T09:08:06.652Z,66.98
2024-03-05T09:10:35.286Z,65.26
2024-03-05T09:13:02.958Z,64.83
2024-03-05T09:15:31.060Z,65.50
2024-03-05T09:17:58.349Z,64.71
2024-03-05T09:20:25.266Z,65.48
2024-03-05T09:22:52.230Z,64.06
2024-03-05T09:25:19.366Z,62.48
2024-03-05T09:27:46.751Z,64.28
2024-03-05T09:30:19.405Z,62.92
2024-03-05T09:32:47.657Z,62.17
2024-03-05T09:35:16.430Z,61.17
2024-03-05T09:37:46.989Z,62.08
2024-03-05T09:40:20.621Z,62.50
2024-03-05T09:42:48.510Z,61.90
2024-03-05T09:45:19.018Z,62.61
2024-03-05T09:47:50.699Z,63.23
2024-03-05T09:50:18.775Z,62.19
2024-03-05T09:52:48.088Z,60.99
2024-03-05T09:55:18.464Z,60.14
2024-03-05T09:57:50.007Z,60.78
2024-03-05T10:00:20.528Z,60.29
2024-03-05T10:02:56.525Z,59.78
2024-03-05T10:05:23.789Z,61.38
2024-03-05T10:07:51.060Z,62.21
2024-03-05T10:10:23.226Z,61.69
2024-03-05T10:12:53.695Z,61.82
2024-03-05T10:15:24.170Z,62.81
2024-03-05T10:17:54.154Z,62.34
2024-03-05T10:20:27.255Z,62.38
2024-03-05T10:22:59.940Z,61.76
2024-03-05T10:25:29.266Z,61.74
2024-03-05T10:27:57.150Z,61.53
2024-03-05T10:30:26.086Z,62.37
2024-03-05T10:33:00.605Z,62.06
2024-03-05T10:35:30.350Z,61.65
2024-03-05T10:38:13.504Z,63.26
2024-03-05T10:40:45.876Z,62.44
2024-03-05T10:43:17.701Z,63.07
2024-03-05T10:45:46.205Z,61.80
2024-03-05T10:48:16.630Z,61.24
2024-03-05T10:50:49.816Z,61.79
2024-03-05T10:53:17.946Z,61.34
2024-03-05T10:55:48.910Z,62.17
2024-03-05T10:58:18.691Z,61.75
2024-03-05T11:00:47.601Z,62.51
2024-03-05T11:03:18.996Z,62.11
2024-03-05T11:05:54.966Z,62.14
2024-03-05T11:08:28.815Z,61.48
2024-03-05T11:11:14.250Z,60.43
2024-03-05T11:13:42.328Z,59.87
2024-03-05T11:16:10.058Z,60.20
2024-03-05T11:18:39.001Z,60.78
2024-03-05T11:21:18.722Z,60.76
2024-03-05T11:23:51.720Z,59.49
2024-03-05T11:26:23.303Z,60.73
2024-03-05T11:28:54.197Z,59.60
2024-03-05T11:31:22.218Z,57.93
2024-03-05T11:34:14.072Z,58.33
2024-03-05T11:36:41.500Z,59.19
2024-03-05T11:39:15.356Z,58.92
2024-03-05T11:41:44.548Z,57.26
2024-03-05T11:44:44.460Z,58.21
2024-03-05T11:47:11.579Z,57.78
2024-03-05T11:49:39.179Z,56.36
2024-03-05T11:52:07.006Z,57.76
2024-03-05T11:54:34.502Z,57.67
2024-03-05T11:57:02.229Z,57.54
2024-03-05T11:59:41.965Z,57.77
2024-03-05T12:02:16.496Z,57.32
2024-03-05T12:04:45.390Z,59.02
2024-03-05T12:07:16.048Z,58.87
2024-03-05T12:09:42.922Z,59.40
2024-03-05T12:12:15.406Z,58.95
2024-03-05T12:14:51.806Z,59.33
2024-03-05T12:17:20.956Z,58.54
2024-03-05T12:20:11.691Z,58.42
2024-03-05T12:22:41.413Z,58.02
2024-03-05T12:25:09.754Z,57.90
2024-03-05T12:27:38.515Z,57.66
2024-03-05T12:30:08.172Z,57.10
2024-03-05T12:32:37.663Z,57.62
2024-03-05T12:35:06.461Z,57.67
2024-03-05T12:37:35.447Z,56.85
2024-03-05T12:40:08.218Z,56.07
2024-03-05T12:42:35.291Z,56.84
2024-03-05T12:45:10.536Z,56.42
2024-03-05T12:47:38.731Z,56.34
2024-03-05T12:50:08.774Z,55.85
2024-03-05T12:52:36.580Z,55.87
2024-03-05T12:55:08.757Z,55.91
2024-03-05T12:57:36.157Z,56.00
2024-03-05T13:00:11.360Z,56.28
2024-03-05T13:02:39.530Z,55.67
2024-03-05T13:05:09.377Z,55.48
2024-03-05T13:07:36.752Z,56.50
2024-03-05T13:10:11.968Z,55.36
2024-03-05T13:12:39.985Z,55.55
2024-03-05T13:15:07.748Z,54.99
2024-03-05T13:17:34.905Z,56.53
2024-03-05T13:20:01.931Z,56.93
2024-03-05T13:22:28.911Z,56.63
2024-03-05T13:24:56.270Z,56.47
2024-03-05T13:27:24.911Z,57.07
2024-03-05T13:30:01.074Z,57.20
2024-03-05T13:32:32.716Z,59.51
2024-03-05T13:34:59.718Z,59.39
2024-03-05T13:37:26.670Z,58.25
2024-03-05T13:39:53.568Z,57.26
2024-03-05T13:42:20.588Z,56.65
2024-03-05T13:44:47.648Z,59.56
2024-03-05T13:47:14.780Z,59.05
2024-03-05T13:49:42.844Z,59.95
2024-03-05T13:52:10.072Z,58.80
2024-03-05T13:54:38.561Z,58.51
2024-03-05T13:57:05.889Z,57.75
2024-03-05T13:59:33.004Z,58.00
2024-03-05T14:02:01.125Z,59.15
2024-03-05T14:04:28.216Z,58.85
2024-03-05T14:06:55.216Z,58.30
2024-03-05T14:09:22.251Z,57.52
2024-03-05T14:11:49.227Z,57.60
2024-03-05T14:14:21.246Z,57.13
2024-03-05T14:16:48.691Z,57.55
2024-03-05T14:19:15.745Z,56.92
2024-03-05T14:21:42.655Z,57.51
2024-03-05T14:24:13.751Z,58.54
2024-03-05T14:26:42.707Z,59.53
2024-03-05T14:29:09.955Z,58.51
2024-03-05T14:31:38.038Z,58.56
2024-03-05T14:34:05.445Z,58.32
2024-03-05T14:36:32.889Z,58.00
2024-03-05T14:39:02.754Z,58.23
2024-03-05T14:41:29.676Z,58.12
2024-03-05T14:43:56.732Z,57.68
2024-03-05T14:46:25.875Z,57.98
2024-03-05T14:48:52.817Z,58.29
2024-03-05T14:51:19.910Z,58.63
2024-03-05T14:53:47.849Z,58.52
2024-03-05T14:56:14.880Z,58.41
2024-03-05T14:58:41.859Z,58.46
2024-03-05T15:01:08.843Z,59.04
2024-03-05T15:03:35.752Z,58.91
2024-03-05T15:06:03.674Z,58.72
2024-03-05T15:08:30.644Z,59.12
2024-03-05T15:10:58.324Z,59.36
2024-03-05T15:13:25.418Z,60.07
2024-03-05T15:15:52.365Z,59.96
2024-03-05T15:18:21.148Z,59.77
2024-03-05T15:20:48.085Z,59.68
2024-03-05T15:23:15.117Z,59.88
2024-03-05T15:25:42.106Z,59.80
2024-03-05T15:28:10.221Z,60.21
2024-03-05T15:30:37.451Z,60.25
2024-03-05T15:33:10.885Z,60.55
2024-03-05T15:35:37.985Z,61.06
2024-03-05T15:38:06.644Z,60.63
2024-03-05T15:40:34.650Z,60.20
2024-03-05T15:43:06.411Z,60.24
2024-03-05T15:45:35.047Z,60.65
2024-03-05T15:48:02.033Z,60.24
2024-03-05T15:50:32.024Z,60.22
2024-03-05T15:53:00.808Z,60.76
2024-03-05T15:55:29.587Z,61.32
2024-03-05T15:58:09.117Z,61.38
2024-03-05T16:00:38.398Z,61.99
2024-03-05T16:03:08.375Z,62.45
2024-03-05T16:05:47.762Z,62.77
2024-03-05T16:08:24.976Z,63.49
2024-03-05T16:10:53.279Z,63.54
2024-03-05T16:13:21.388Z,63.92
2024-03-05T16:15:49.220Z,65.62
2024-03-05T16:18:16.708Z,67.81
2024-03-05T16:20:44.103Z,68.54
2024-03-05T16:23:11.852Z,69.21
2024-03-05T16:25:41.241Z,69.06
2024-03-05T16:28:14.881Z,68.85
2024-03-05T16:30:42.256Z,68.81
2024-03-05T16:33:10.398Z,69.02
2024-03-05T16:35:37.627Z,70.97
2024-03-05T16:38:06.143Z,71.99
2024-03-05T16:40:37.141Z,72.71
2024-03-05T16:43:06.287Z,72.16
2024-03-05T16:45:34.897Z,72.76
2024-03-05T16:48:02.381Z,71.80
2024-03-05T16:50:30.917Z,72.11
2024-03-05T16:52:59.190Z,71.96
2024-03-05T16:55:28.166Z,73.42
2024-03-05T16:57:59.860Z,73.20
2024-03-05T17:00:34.462Z,72.83
2024-03-05T17:03:07.365Z,71.92
2024-03-05T17:05:37.920Z,71.56
2024-03-05T17:08:08.011Z,71.41
2024-03-05T17:10:35.278Z,71.83
2024-03-05T17:13:07.173Z,71.64
2024-03-05T17:15:39.377Z,71.46
2024-03-05T17:18:07.243Z,71.94
2024-03-05T17:20:34.922Z,71.79
2024-03-05T17:23:05.580Z,72.81
2024-03-05T17:25:37.984Z,72.95
2024-03-05T17:28:09.399Z,72.40
2024-03-05T17:30:39.151Z,72.74
2024-03-05T17:33:13.900Z,73.13
2024-03-05T17:35:42.602Z,72.90
2024-03-05T17:38:11.374Z,73.12
2024-03-05T17:40:39.171Z,73.05
2024-03-05T17:43:06.272Z,72.99
2024-03-05T17:45:33.365Z,73.05
2024-03-05T17:48:06.816Z,72.74
2024-03-05T17:50:37.916Z,72.98
2024-03-05T17:53:06.836Z,73.19
2024-03-05T17:55:35.790Z,73.61
2024-03-05T17:58:05.207Z,73.26
2024-03-05T18:00:42.862Z,73.46
2024-03-05T18:03:12.259Z,73.62
2024-03-05T18:05:40.458Z,73.69
2024-03-05T18:08:08.447Z,73.57
2024-03-05T18:10:38.349Z,73.60
2024-03-05T18:13:07.475Z,73.74
2024-03-05T18:15:35.349Z,73.58
2024-03-05T18:18:03.016Z,73.48
2024-03-05T18:20:30.509Z,73.74
2024-03-05T18:23:01.284Z,73.51
2024-03-05T18:25:35.235Z,73.90
2024-03-05T18:28:03.730Z,73.98
2024-03-05T18:30:39.195Z,74.04
2024-03-05T18:33:08.507Z,74.19
2024-03-05T18:35:37.078Z,74.28
2024-03-05T18:38:16.483Z,74.39
2024-03-05T18:40:51.801Z,74.44
2024-03-05T18:43:20.593Z,74.30
2024-03-05T18:45:48.406Z,74.34
2024-03-05T18:48:16.322Z,74.22
2024-03-05T18:50:44.360Z,74.18
2024-03-05T18:53:12.973Z,74.22
2024-03-05T18:55:40.294Z,74.27
2024-03-05T18:58:09.123Z,74.30
2024-03-05T19:00:39.533Z,74.83
2024-03-05T19:03:06.929Z,75.08
2024-03-05T19:05:37.790Z,75.09
2024-03-05T19:08:06.833Z,74.91
2024-03-05T19:10:34.384Z,74.35
2024-03-05T19:13:03.254Z,74.46
2024-03-05T19:15:30.674Z,74.70
2024-03-05T19:17:58.437Z,74.73
2024-03-05T19:20:26.711Z,74.94
2024-03-05T19:22:53.938Z,75.42
2024-03-05T19:25:22.073Z,74.74
2024-03-05T19:27:49.146Z,75.00
2024-03-05T19:30:19.013Z,74.87
2024-03-05T19:32:47.387Z,74.64
2024-03-05T19:35:18.061Z,74.64
2024-03-05T19:37:48.601Z,74.57
2024-03-05T19:40:17.641Z,74.60
2024-03-05T19:42:47.958Z,74.83
2024-03-05T19:45:15.175Z,74.10
2024-03-05T19:47:42.765Z,74.31
2024-03-05T19:50:14.742Z,74.69
2024-03-05T19:52:42.518Z,74.40
2024-03-05T19:55:10.366Z,74.40
2024-03-05T19:57:38.290Z,74.67
2024-03-05T20:00:13.066Z,74.42
2024-03-05T20:02:41.551Z,74.13
2024-03-05T20:05:09.368Z,74.54
2024-03-05T20:07:36.487Z,74.69
2024-03-05T20:10:04.696Z,74.66
2024-03-05T20:12:32.222Z,74.15
2024-03-05T20:14:59.268Z,73.93
2024-03-05T20:17:27.637Z,74.46
2024-03-05T20:19:54.955Z,74.41
2024-03-05T20:22:25.946Z,74.20
2024-03-05T20:24:59.945Z,74.24
2024-03-05T20:27:29.100Z,74.57
2024-03-05T20:29:56.936Z,74.23
2024-03-05T20:32:26.246Z,74.34
2024-03-05T20:34:53.286Z,74.70
2024-03-05T20:37:21.643Z,74.90
2024-03-05T20:39:50.786Z,74.54
2024-03-05T20:42:17.776Z,75.35
2024-03-05T20:44:45.113Z,74.84
2024-03-05T20:47:12.992Z,74.98
2024-03-05T20:49:41.421Z,74.86
2024-03-05T20:52:08.429Z,75.01
2024-03-05T20:54:35.276Z,74.63
2024-03-05T20:57:02.203Z,74.90
2024-03-05T20:59:33.377Z,74.80
2024-03-05T21:02:10.034Z,74.82
2024-03-05T21:04:37.818Z,74.38
2024-03-05T21:07:08.061Z,74.66
2024-03-05T21:09:35.089Z,74.49
2024-03-05T21:12:02.187Z,74.42
2024-03-05T21:14:29.138Z,74.18
2024-03-05T21:16:56.408Z,74.07
2024-03-05T21:19:27.403Z,73.91
2024-03-05T21:21:54.725Z,73.88
2024-03-05T21:24:24.163Z,73.78
2024-03-05T21:29:21.344Z,73.74
2024-03-05T21:31:48.432Z,73.75
2024-03-05T21:34:15.620Z,73.90
2024-03-05T21:36:42.830Z,73.98
2024-03-05T21:39:10.291Z,75.37
2024-03-05T21:41:37.249Z,75.71
2024-03-05T21:44:04.411Z,75.40
2024-03-05T21:46:31.625Z,74.85
2024-03-05T21:48:58.793Z,74.89
2024-03-05T21:51:25.689Z,75.49
2024-03-05T21:53:52.862Z,75.49
2024-03-05T21:56:21.874Z,75.66
2024-03-05T21:58:48.805Z,75.33
2024-03-05T22:01:15.710Z,75.19
2024-03-05T22:03:42.663Z,74.67
2024-03-05T22:06:15.493Z,74.91
2024-03-05T22:08:47.221Z,74.63
2024-03-05T22:11:15.413Z,74.85
2024-03-05T22:13:42.532Z,74.75
2024-03-05T22:16:09.674Z,75.47
2024-03-05T22:18:37.499Z,75.48
2024-03-05T22:21:04.933Z,75.18
2024-03-05T22:23:31.893Z,75.42
2024-03-05T22:25:58.818Z,75.47
2024-03-05T22:28:25.784Z,75.50
2024-03-05T22:30:54.316Z,75.38
2024-03-05T22:33:21.213Z,75.37
2024-03-05T22:35:48.174Z,75.47
2024-03-05T22:38:15.129Z,75.08
2024-03-05T22:40:42.772Z,75.33
2024-03-05T22:43:11.473Z,75.14
2024-03-05T22:45:38.729Z,75.16
2024-03-05T22:48:06.248Z,75.22
2024-03-05T22:50:33.146Z,75.52
2024-03-05T22:53:00.132Z,75.13
2024-03-05T22:55:27.053Z,75.15
2024-03-05T22:57:55.096Z,75.17
2024-03-05T23:00:25.924Z,74.85
2024-03-05T23:02:53.117Z,75.13
2024-03-05T23:05:23.166Z,75.39
2024-03-05T23:07:52.227Z,75.20
2024-03-05T23:10:19.385Z,75.29
2024-03-05T23:12:46.299Z,75.80
2024-03-05T23:15:16.672Z,75.64
2024-03-05T23:17:44.633Z,75.52
2024-03-05T23:20:12.940Z,75.45
2024-03-05T23:22:40.616Z,75.67
2024-03-05T23:25:09.945Z,75.48
2024-03-05T23:27:38.043Z,75.76
2024-03-05T23:30:05.758Z,75.56
2024-03-05T23:32:33.414Z,75.67
2024-03-05T23:35:00.867Z,75.50
2024-03-05T23:37:27.850Z,75.32
2024-03-05T23:39:55.195Z,75.27
2024-03-05T23:42:22.214Z,75.70
2024-03-05T23:44:49.223Z,75.99
2024-03-05T23:47:16.371Z,75.81
2024-03-05T23:49:44.785Z,75.35
2024-03-05T23:52:11.717Z,75.59
2024-03-05T23:54:38.610Z,75.63
2024-03-05T23:57:05.579Z,75.29
2024-03-05T23:59:32.477Z,75.62
